Time;durP1;ratioP1;P1;durP2;ratioP2;P2;SDS_P1;SDS_P2;PMS_P1;PMS_P2;Temp;Humidity;BMP_temperature;BMP_pressure;BME280_temperature;BME280_humidity;BME280_pressure;Samples;Min_cycle;Max_cycle;Signal;HPM_P1;HPM_P2
2023/10/12 00:02:32;;;;;;;11.40;8.10;;;;;;;19.19;100.00;101110.53;5266719;28;20028;-73
2023/10/12 00:05:06;;;;;;;14.95;9.32;;;;;;;19.20;100.00;101114.03;5265008;28;20029;-73
2023/10/12 00:07:42;;;;;;;15.40;9.20;;;;;;;19.12;100.00;101109.59;5262834;28;20025;-73
2023/10/12 00:12:47;;;;;;;17.33;10.40;;;;;;;19.17;100.00;101123.19;5269173;28;20033;-73
2023/10/12 00:17:57;;;;;;;14.57;9.63;;;;;;;19.23;100.00;101134.91;5269218;28;20032;-73
2023/10/12 00:23:13;;;;;;;13.88;10.93;;;;;;;19.16;100.00;101126.84;5266296;28;20131;-73
2023/10/12 00:25:47;;;;;;;15.52;10.45;;;;;;;19.13;100.00;101127.22;5256366;28;20044;-73
2023/10/12 00:28:21;;;;;;;16.02;11.18;;;;;;;19.08;100.00;101128.75;5264871;28;20037;-73
2023/10/12 00:30:54;;;;;;;22.73;11.57;;;;;;;19.08;100.00;101132.22;5263951;28;20025;-73
2023/10/12 00:33:26;;;;;;;17.55;11.60;;;;;;;19.05;100.00;101148.50;5268472;28;20063;-73
2023/10/12 00:36:04;;;;;;;21.23;12.07;;;;;;;19.02;100.00;101138.25;5268501;28;20045;-73
2023/10/12 00:38:38;;;;;;;15.70;11.38;;;;;;;18.99;100.00;101146.56;5263596;28;20044;-73
2023/10/12 00:41:14;;;;;;;17.75;12.20;;;;;;;19.01;100.00;101151.69;5264748;28;20034;-73
2023/10/12 00:51:53;;;;;;;19.98;12.80;;;;;;;18.89;100.00;101173.34;5265333;28;20123;-73
2023/10/12 00:57:10;;;;;;;18.65;12.73;;;;;;;18.80;100.00;101174.44;5265348;28;20036;-74
2023/10/12 00:59:43;;;;;;;16.58;12.80;;;;;;;18.77;100.00;101177.44;5265603;28;20051;-73
2023/10/12 01:02:17;;;;;;;17.38;13.48;;;;;;;18.74;100.00;101171.63;5265803;28;20041;-73
2023/10/12 01:04:52;;;;;;;21.80;13.98;;;;;;;18.68;100.00;101166.00;5266792;28;20028;-73
2023/10/12 01:07:34;;;;;;;20.08;12.95;;;;;;;18.70;100.00;101164.03;5264608;28;20032;-73
2023/10/12 01:10:09;;;;;;;21.27;14.20;;;;;;;18.64;100.00;101167.38;5268715;28;20059;-73
2023/10/12 01:12:45;;;;;;;18.98;13.40;;;;;;;18.62;100.00;101174.66;5264852;28;20037;-73
2023/10/12 01:15:17;;;;;;;20.38;14.38;;;;;;;18.65;100.00;101170.84;5264347;28;20044;-73
2023/10/12 01:17:51;;;;;;;18.58;14.13;;;;;;;18.64;100.00;101170.00;5266635;28;20389;-73
2023/10/12 01:20:39;;;;;;;17.90;13.45;;;;;;;18.55;100.00;101175.53;5265039;28;20386;-74
2023/10/12 01:23:11;;;;;;;23.35;14.60;;;;;;;18.53;100.00;101178.38;5266783;28;20029;-74
2023/10/12 01:25:46;;;;;;;21.55;15.00;;;;;;;18.55;100.00;101176.34;5265480;28;20033;-73
2023/10/12 01:28:20;;;;;;;18.40;14.48;;;;;;;18.51;100.00;101176.88;5266117;28;20505;-74
2023/10/12 01:30:54;;;;;;;21.55;14.05;;;;;;;18.52;100.00;101171.38;5265517;28;20474;-74
2023/10/12 01:33:26;;;;;;;19.92;14.93;;;;;;;18.48;100.00;101170.91;5263752;28;20056;-74
2023/10/12 01:35:59;;;;;;;18.73;14.95;;;;;;;18.50;100.00;101154.84;5267363;28;20056;-74
2023/10/12 01:38:37;;;;;;;19.98;14.55;;;;;;;18.49;100.00;101142.56;5264543;28;20036;-74
2023/10/12 01:41:09;;;;;;;19.00;15.02;;;;;;;18.49;100.00;101129.31;5264584;28;20051;-74
2023/10/12 01:43:43;;;;;;;22.38;16.35;;;;;;;18.50;100.00;101128.31;5262926;28;20037;-75
2023/10/12 01:46:21;;;;;;;20.75;15.30;;;;;;;18.46;100.00;101127.00;5265624;28;20075;-74
2023/10/12 01:48:53;;;;;;;19.40;14.70;;;;;;;18.43;100.00;101132.66;5265638;28;20028;-74
2023/10/12 01:51:25;;;;;;;20.05;14.82;;;;;;;18.44;100.00;101132.47;5262708;28;20432;-74
2023/10/12 01:53:57;;;;;;;21.43;15.23;;;;;;;18.44;100.00;101142.25;5267707;28;20031;-74
2023/10/12 01:56:29;;;;;;;22.83;15.63;;;;;;;18.40;100.00;101151.56;5263699;28;20024;-74
2023/10/12 01:59:06;;;;;;;24.33;15.55;;;;;;;18.41;100.00;101142.59;5262199;28;20625;-74
2023/10/12 02:01:42;;;;;;;21.60;15.93;;;;;;;18.33;100.00;101145.28;5269202;28;20025;-74
2023/10/12 02:04:14;;;;;;;19.30;15.70;;;;;;;18.29;100.00;101139.50;5264453;28;20040;-74
2023/10/12 02:06:46;;;;;;;24.63;17.00;;;;;;;18.28;100.00;101137.03;5267752;28;20040;-74
2023/10/12 02:09:22;;;;;;;30.30;16.37;;;;;;;18.29;100.00;101138.69;5259901;28;20038;-74
2023/10/12 02:11:54;;;;;;;20.20;15.88;;;;;;;18.17;100.00;101138.25;5253928;28;20037;-74
2023/10/12 02:14:33;;;;;;;21.67;17.00;;;;;;;18.19;100.00;101147.69;5264267;28;20028;-74
2023/10/12 02:17:08;;;;;;;21.38;16.75;;;;;;;18.11;100.00;101153.03;5266678;28;20035;-74
2023/10/12 02:19:43;;;;;;;18.48;16.10;;;;;;;18.10;100.00;101159.31;5266939;28;20304;-74
2023/10/12 02:22:25;;;;;;;20.40;16.40;;;;;;;18.05;100.00;101158.19;5266408;28;20039;-74
2023/10/12 02:25:37;;;;;;;20.65;16.15;;;;;;;18.01;100.00;101162.19;5263482;28;20025;-74
2023/10/12 02:27:54;;;;;;;19.73;17.30;;;;;;;18.03;100.00;101139.78;5254375;28;20036;-74
2023/10/12 02:30:29;;;;;;;22.80;16.77;;;;;;;18.04;100.00;101138.81;5265389;28;20043;-74
2023/10/12 02:33:05;;;;;;;20.65;16.33;;;;;;;18.00;100.00;101111.00;5266356;28;20032;-74
2023/10/12 02:35:37;;;;;;;18.95;16.17;;;;;;;18.00;100.00;101108.34;5263143;28;20045;-74
2023/10/12 02:38:15;;;;;;;20.13;16.25;;;;;;;18.01;100.00;101109.97;5262618;28;20520;-74
2023/10/12 02:40:57;;;;;;;18.80;16.53;;;;;;;18.03;100.00;101107.97;5263504;28;20485;-74
2023/10/12 02:43:32;;;;;;;19.52;15.98;;;;;;;17.98;100.00;101119.09;5262937;28;20399;-74
2023/10/12 02:46:06;;;;;;;19.92;15.40;;;;;;;17.97;100.00;101116.63;5262713;28;20032;-74
2023/10/12 02:48:39;;;;;;;20.95;16.73;;;;;;;17.96;100.00;101107.84;5267113;28;20465;-73
2023/10/12 02:51:14;;;;;;;19.40;15.97;;;;;;;17.97;100.00;101104.19;5261871;28;20032;-73
2023/10/12 02:53:47;;;;;;;18.70;15.93;;;;;;;17.94;100.00;101106.38;5264764;28;20295;-74
2023/10/12 02:56:24;;;;;;;19.70;15.85;;;;;;;17.94;100.00;101109.00;5268051;28;20028;-74
2023/10/12 02:59:01;;;;;;;23.83;16.08;;;;;;;17.90;100.00;101108.53;5261208;28;20025;-74
2023/10/12 03:01:32;;;;;;;18.48;15.35;;;;;;;17.89;100.00;101109.53;5264494;28;20029;-74
2023/10/12 03:04:11;;;;;;;22.50;16.48;;;;;;;18.00;100.00;101100.38;5263809;28;20493;-74
2023/10/12 03:06:55;;;;;;;19.38;15.27;;;;;;;17.86;100.00;101101.91;5263614;28;20049;-74
2023/10/12 03:09:36;;;;;;;18.33;15.68;;;;;;;17.86;100.00;101104.56;5262287;28;20589;-74
2023/10/12 03:12:09;;;;;;;20.85;15.23;;;;;;;17.82;100.00;101105.91;5264388;28;20431;-74
2023/10/12 03:14:41;;;;;;;19.23;15.55;;;;;;;17.84;100.00;101108.38;5262030;28;20032;-74
2023/10/12 03:17:16;;;;;;;21.05;16.05;;;;;;;17.80;100.00;101109.72;5260873;28;20040;-74
2023/10/12 03:20:14;;;;;;;21.42;16.20;;;;;;;17.78;100.00;101088.69;5264265;28;20039;-74
2023/10/12 03:22:52;;;;;;;17.55;14.63;;;;;;;17.78;100.00;101098.47;5258170;28;20382;-74
2023/10/12 03:25:38;;;;;;;19.33;14.93;;;;;;;17.71;100.00;101103.59;5262317;28;20393;-74
2023/10/12 03:28:13;;;;;;;18.73;15.00;;;;;;;17.67;100.00;101110.22;5261849;28;20041;-74
2023/10/12 03:30:53;;;;;;;19.15;15.35;;;;;;;17.66;100.00;101104.13;5264951;28;20458;-74
2023/10/12 03:33:34;;;;;;;19.15;13.48;;;;;;;17.66;100.00;101108.59;5267177;28;20028;-74
2023/10/12 03:36:23;;;;;;;19.10;14.48;;;;;;;17.66;100.00;101101.47;5268464;28;20048;-74
2023/10/12 03:52:28;;;;;;;14.80;12.65;;;;;;;17.69;100.00;101106.44;5270799;28;20021;-74
2023/10/12 03:55:16;;;;;;;15.60;12.73;;;;;;;17.60;100.00;101109.25;5267577;28;20039;-74
2023/10/12 03:58:00;;;;;;;13.50;12.05;;;;;;;17.62;100.00;101118.69;5265755;28;20051;-74
2023/10/12 04:01:05;;;;;;;15.45;12.43;;;;;;;17.69;100.00;101117.03;5263321;28;20040;-74
2023/10/12 04:03:42;;;;;;;18.23;13.07;;;;;;;17.69;100.00;101135.56;5264791;28;20043;-74
2023/10/12 04:06:15;;;;;;;16.52;12.45;;;;;;;17.66;100.00;101140.38;5267596;28;20017;-74
2023/10/12 04:08:51;;;;;;;14.15;11.70;;;;;;;17.67;100.00;101129.59;5266295;28;20039;-74
2023/10/12 04:14:38;;;;;;;16.98;13.65;;;;;;;17.66;100.00;101153.63;5269494;28;20481;-74
2023/10/12 04:28:16;;;;;;;16.95;13.32;;;;;;;17.59;100.00;101126.97;5262372;28;21627;-74
2023/10/12 04:33:24;;;;;;;14.20;12.63;;;;;;;17.68;100.00;101141.84;5263367;28;20405;-74
2023/10/12 04:41:24;;;;;;;15.50;13.23;;;;;;;17.59;100.00;101132.28;5266857;28;20055;-74
2023/10/12 04:44:06;;;;;;;19.75;13.73;;;;;;;17.67;100.00;101140.22;5262215;28;20025;-73
2023/10/12 04:46:47;;;;;;;17.13;13.38;;;;;;;17.67;100.00;101142.03;5268961;28;20047;-73
2023/10/12 04:52:02;;;;;;;16.35;13.05;;;;;;;17.64;100.00;101159.09;5265759;28;20032;-72
2023/10/12 04:54:36;;;;;;;;;;;;;;;18.44;100.00;101147.56;5270111;28;20048;-73
2023/10/12 05:02:30;;;;;;;14.30;12.05;;;;;;;17.66;100.00;101148.34;5265608;28;20032;-73
2023/10/12 05:05:15;;;;;;;16.00;12.02;;;;;;;17.66;100.00;101149.16;5262434;28;20036;-73
2023/10/12 05:07:53;;;;;;;16.17;12.05;;;;;;;17.66;100.00;101162.41;5257850;28;20067;-73
2023/10/12 05:10:31;;;;;;;17.45;12.82;;;;;;;17.64;100.00;101171.50;5267351;28;20028;-73
2023/10/12 05:13:04;;;;;;;15.57;12.45;;;;;;;17.67;100.00;101177.31;5264203;28;20020;-73
2023/10/12 05:15:46;;;;;;;15.77;13.00;;;;;;;17.65;100.00;101183.75;5266299;28;20389;-73
2023/10/12 05:18:18;;;;;;;15.85;12.80;;;;;;;17.66;100.00;101186.25;5265128;28;20397;-72
2023/10/12 05:20:51;;;;;;;14.50;12.40;;;;;;;17.70;100.00;101192.88;5263748;28;20029;-73
2023/10/12 05:23:23;;;;;;;;;;;;;;;18.50;100.00;101188.50;5264899;28;20033;-73
2023/10/12 05:28:30;;;;;;;12.88;11.40;;;;;;;17.73;100.00;101181.13;5266739;28;20045;-73
2023/10/12 05:34:00;;;;;;;13.05;11.65;;;;;;;17.72;100.00;101184.75;5260950;28;20036;-73
2023/10/12 05:36:31;;;;;;;15.15;11.38;;;;;;;17.72;100.00;101188.22;5262665;28;20052;-73
2023/10/12 05:39:12;;;;;;;15.93;11.40;;;;;;;17.69;100.00;101185.94;5256062;28;20045;-73
2023/10/12 05:41:46;;;;;;;13.40;11.02;;;;;;;17.70;100.00;101184.91;5267369;28;20055;-73
2023/10/12 05:44:17;;;;;;;15.02;10.88;;;;;;;17.72;100.00;101188.22;5268893;28;20028;-73
2023/10/12 05:46:52;;;;;;;14.45;11.05;;;;;;;17.72;100.00;101190.03;5262065;28;20028;-73
2023/10/12 05:49:24;;;;;;;14.23;10.82;;;;;;;17.70;100.00;101192.88;5265345;28;20035;-73
2023/10/12 05:51:55;;;;;;;15.07;10.50;;;;;;;17.70;100.00;101200.81;5263294;28;20054;-73
2023/10/12 05:54:28;;;;;;;15.18;11.25;;;;;;;17.72;100.00;101209.41;5261458;28;20044;-73
2023/10/12 05:57:19;;;;;;;15.15;10.40;;;;;;;17.69;100.00;101209.78;5263593;28;20025;-73
2023/10/12 05:59:51;;;;;;;13.45;10.77;;;;;;;17.70;100.00;101210.59;5261694;28;20056;-72
2023/10/12 06:02:23;;;;;;;12.70;10.50;;;;;;;17.72;100.00;101216.53;5264782;28;20033;-73
2023/10/12 06:04:56;;;;;;;14.93;10.43;;;;;;;17.69;100.00;101217.72;5262382;28;20025;-73
2023/10/12 06:07:28;;;;;;;13.50;10.68;;;;;;;17.63;100.00;101215.72;5264304;28;20036;-73
2023/10/12 06:10:00;;;;;;;14.60;10.35;;;;;;;17.67;100.00;101216.22;5264387;28;20048;-73
2023/10/12 06:12:32;;;;;;;16.30;10.77;;;;;;;17.71;100.00;101220.19;5264884;28;20017;-73
2023/10/12 06:15:09;;;;;;;16.52;10.88;;;;;;;17.67;100.00;101218.88;5261537;28;20037;-72
2023/10/12 06:17:49;;;;;;;14.90;10.52;;;;;;;17.69;100.00;101215.06;5263711;28;20040;-74
2023/10/12 06:20:40;;;;;;;15.95;11.45;;;;;;;17.69;100.00;101225.69;5258112;28;20041;-73
2023/10/12 06:23:15;;;;;;;11.65;10.15;;;;;;;17.72;100.00;101222.66;5264979;28;20025;-74
2023/10/12 06:25:47;;;;;;;13.95;10.65;;;;;;;17.70;100.00;101227.31;5265089;28;20036;-73
2023/10/12 06:28:18;;;;;;;11.30;9.68;;;;;;;17.66;100.00;101233.94;5261201;28;20556;-74
2023/10/12 06:30:52;;;;;;;16.48;10.25;;;;;;;17.68;100.00;101231.94;5261237;28;20382;-73
2023/10/12 06:33:23;;;;;;;;;;;;;;;18.48;100.00;101239.06;5259722;28;20041;-73
2023/10/12 06:36:01;;;;;;;12.95;10.13;;;;;;;17.72;100.00;101235.91;5263320;28;19921;-73
2023/10/12 06:39:02;;;;;;;11.43;10.10;;;;;;;17.70;100.00;101235.28;5257935;28;20035;-73
2023/10/12 06:46:54;;;;;;;15.23;10.13;;;;;;;17.66;100.00;101235.78;5257746;28;20040;-73
2023/10/12 06:49:29;;;;;;;13.90;9.95;;;;;;;17.70;100.00;101237.09;5264652;28;20378;-73
2023/10/12 06:52:00;;;;;;;14.15;11.18;;;;;;;17.66;100.00;101238.44;5265361;28;20025;-72
2023/10/12 06:54:39;;;;;;;12.55;9.88;;;;;;;17.70;100.00;101248.53;5255464;28;20025;-73
2023/10/12 06:59:52;;;;;;;12.68;10.88;;;;;;;17.63;100.00;101247.53;5260426;28;20043;-73
2023/10/12 07:02:28;;;;;;;13.35;10.32;;;;;;;17.69;100.00;101253.97;5262752;28;20032;-73
2023/10/12 07:05:04;;;;;;;15.70;10.23;;;;;;;17.59;100.00;101259.44;5261664;28;20039;-73
2023/10/12 07:07:41;;;;;;;21.35;11.13;;;;;;;17.59;100.00;101259.44;5268963;28;20040;-73
2023/10/12 07:10:17;;;;;;;14.20;10.95;;;;;;;17.60;100.00;101262.94;5265669;28;20040;-73
2023/10/12 07:12:49;;;;;;;14.30;11.10;;;;;;;17.57;100.00;101261.44;5261868;28;20020;-73
2023/10/12 07:15:22;;;;;;;13.57;10.68;;;;;;;17.59;100.00;101259.44;5268807;28;20029;-73
2023/10/12 07:17:53;;;;;;;12.43;11.13;;;;;;;17.61;100.00;101267.22;5268966;28;20036;-73
2023/10/12 07:23:15;;;;;;;14.73;10.57;;;;;;;17.63;100.00;101278.50;5266640;28;20045;-73
2023/10/12 07:25:51;;;;;;;14.10;10.60;;;;;;;17.66;100.00;101280.81;5264883;28;20043;-73
2023/10/12 07:28:32;;;;;;;14.32;9.82;;;;;;;17.60;100.00;101282.28;5264773;28;20367;-73
2023/10/12 07:31:38;;;;;;;15.13;10.45;;;;;;;17.60;100.00;101273.53;5269746;28;20036;-74
2023/10/12 07:39:19;;;;;;;12.32;10.30;;;;;;;17.63;100.00;101284.63;5266371;28;20040;-73
2023/10/12 07:41:55;;;;;;;13.98;11.25;;;;;;;17.62;100.00;101288.28;5265940;28;20188;-73
2023/10/12 07:44:28;;;;;;;14.82;11.23;;;;;;;17.66;100.00;101289.59;5266184;28;20493;-73
2023/10/12 07:47:03;;;;;;;17.17;11.07;;;;;;;17.68;100.00;101294.72;5269244;28;20032;-73
2023/10/12 07:54:56;;;;;;;15.95;10.50;;;;;;;17.69;100.00;101286.63;5267842;28;20036;-73
2023/10/12 07:57:35;;;;;;;12.45;10.20;;;;;;;17.75;100.00;101285.97;5268578;28;20035;-73
2023/10/12 08:15:58;;;;;;;18.65;11.55;;;;;;;17.87;100.00;101282.97;5266121;28;20505;-73
2023/10/12 08:21:24;;;;;;;13.38;10.35;;;;;;;17.97;100.00;101273.03;5270459;28;20036;-73
2023/10/12 08:24:10;;;;;;;13.45;10.45;;;;;;;18.07;100.00;101279.00;5268480;28;20461;-73
2023/10/12 08:32:11;;;;;;;16.52;11.60;;;;;;;18.34;100.00;101291.03;5267623;28;20043;-73
2023/10/12 08:35:10;;;;;;;15.43;11.13;;;;;;;18.35;100.00;101289.19;5259683;28;20440;-74
2023/10/12 08:38:09;;;;;;;13.55;11.15;;;;;;;18.42;100.00;101283.03;5268128;28;20051;-74
2023/10/12 08:40:30;;;;;;;13.07;11.48;;;;;;;18.54;100.00;101291.47;5263487;28;20041;-73
2023/10/12 08:43:08;;;;;;;13.13;10.93;;;;;;;18.63;100.00;101282.44;5271410;28;20040;-74
2023/10/12 08:45:42;;;;;;;14.20;10.32;;;;;;;18.62;100.00;101288.78;5243346;28;20024;-73
2023/10/12 08:48:17;;;;;;;13.38;10.25;;;;;;;18.68;100.00;101292.59;5267937;28;20028;-73
2023/10/12 08:50:58;;;;;;;13.32;10.85;;;;;;;18.65;100.00;101296.41;5273097;28;20039;-73
2023/10/12 08:53:31;;;;;;;13.07;9.93;;;;;;;18.65;100.00;101304.34;5273796;28;20021;-73
2023/10/12 08:56:08;;;;;;;11.98;10.15;;;;;;;18.67;100.00;101315.59;5268832;28;20044;-73
2023/10/12 08:58:50;;;;;;;13.95;10.48;;;;;;;18.77;100.00;101322.59;5270919;28;20052;-73
2023/10/12 09:01:31;;;;;;;12.35;9.73;;;;;;;18.67;100.00;101323.56;5263161;28;20025;-73
2023/10/12 09:04:11;;;;;;;12.30;10.25;;;;;;;18.70;100.00;101317.97;5268036;28;20025;-73
2023/10/12 09:09:48;;;;;;;14.75;10.13;;;;;;;18.69;100.00;101313.63;5262986;28;20094;-73
2023/10/12 09:12:11;;;;;;;13.77;9.68;;;;;;;18.67;100.00;101312.13;5264590;28;20507;-73
2023/10/12 09:14:43;;;;;;;14.52;10.15;;;;;;;18.68;100.00;101309.31;5265446;28;20020;-73
2023/10/12 09:17:30;;;;;;;16.80;10.52;;;;;;;19.03;100.00;101306.38;5266679;28;20035;-73
2023/10/12 09:22:58;;;;;;;13.27;9.13;;;;;;;18.90;100.00;101318.41;5268792;28;20473;-73
2023/10/12 09:28:25;;;;;;;13.27;9.98;;;;;;;18.78;100.00;101310.97;5266215;28;20037;-73
2023/10/12 09:31:00;;;;;;;12.80;10.27;;;;;;;18.78;100.00;101322.41;5264439;28;20031;-73
2023/10/12 09:36:22;;;;;;;11.90;10.10;;;;;;;18.85;100.00;101314.59;5263208;28;20049;-74
2023/10/12 09:39:00;;;;;;;13.93;10.30;;;;;;;18.93;100.00;101302.09;5266873;28;20033;-73
2023/10/12 09:41:38;;;;;;;13.15;9.63;;;;;;;18.96;100.00;101301.75;5260274;28;20037;-73
2023/10/12 09:44:12;;;;;;;13.88;9.75;;;;;;;18.92;100.00;101310.25;5267818;28;20025;-72
2023/10/12 09:46:48;;;;;;;15.40;9.90;;;;;;;18.88;100.00;101304.44;5264839;28;20039;-73
2023/10/12 09:49:22;;;;;;;15.10;10.50;;;;;;;18.86;100.00;101303.78;5267182;28;20036;-73
2023/10/12 09:51:59;;;;;;;11.27;9.48;;;;;;;18.97;100.00;101302.56;5256661;28;20060;-73
2023/10/12 09:54:48;;;;;;;12.10;10.48;;;;;;;18.99;100.00;101299.75;5268414;28;20043;-73
2023/10/12 09:57:25;;;;;;;14.13;9.45;;;;;;;18.86;100.00;101295.81;5263745;28;20032;-73
2023/10/12 10:00:06;;;;;;;12.43;9.45;;;;;;;18.85;100.00;101296.00;5261170;28;20390;-73
2023/10/12 10:02:42;;;;;;;12.70;9.85;;;;;;;18.83;100.00;101298.84;5255167;28;20056;-73
2023/10/12 10:07:55;;;;;;;14.05;10.65;;;;;;;18.93;100.00;101298.63;5265750;28;20047;-73
2023/10/12 10:10:30;;;;;;;12.93;9.50;;;;;;;18.83;100.00;101298.03;5266035;28;20032;-74
2023/10/12 10:13:10;;;;;;;14.02;9.45;;;;;;;18.94;100.00;101286.97;5262631;28;20051;-73
2023/10/12 10:15:55;;;;;;;13.68;9.80;;;;;;;18.98;100.00;101298.09;5268768;28;20040;-73
2023/10/12 10:18:30;;;;;;;11.63;9.85;;;;;;;18.99;100.00;101279.34;5268520;28;20032;-73
2023/10/12 10:21:06;;;;;;;11.85;9.48;;;;;;;18.97;100.00;101278.69;5266502;28;20522;-73
2023/10/12 10:23:48;;;;;;;12.80;9.27;;;;;;;19.01;100.00;101281.81;5256293;28;20037;-73
2023/10/12 10:26:23;;;;;;;15.10;10.23;;;;;;;18.99;100.00;101275.88;5264210;28;20409;-73
2023/10/12 10:29:05;;;;;;;15.55;10.05;;;;;;;19.01;100.00;101273.84;5265432;28;20040;-73
2023/10/12 10:31:43;;;;;;;16.85;9.80;;;;;;;19.02;100.00;101265.72;5265308;28;20031;-73
2023/10/12 10:34:23;;;;;;;13.30;9.38;;;;;;;19.22;100.00;101270.56;5265201;28;20029;-74
2023/10/12 10:36:57;;;;;;;13.43;9.52;;;;;;;19.24;100.00;101255.28;5264030;28;20044;-73
2023/10/12 10:39:29;;;;;;;14.00;9.48;;;;;;;19.30;100.00;101257.22;5264744;28;20045;-73
2023/10/12 10:42:07;;;;;;;16.25;10.07;;;;;;;19.39;100.00;101261.47;5261383;28;20420;-73
2023/10/12 10:44:41;;;;;;;11.05;9.77;;;;;;;19.43;100.00;101265.44;5264597;28;20384;-73
2023/10/12 10:47:15;;;;;;;13.82;10.10;;;;;;;19.51;100.00;101267.19;5264765;28;20041;-73
2023/10/12 10:49:48;;;;;;;10.80;8.70;;;;;;;19.62;100.00;101261.47;5264403;28;20047;-73
2023/10/12 10:52:21;;;;;;;13.13;9.07;;;;;;;19.65;100.00;101256.63;5267060;28;20376;-73
2023/10/12 10:54:59;;;;;;;12.63;9.73;;;;;;;19.72;100.00;101259.41;5265051;28;20048;-74
2023/10/12 10:57:31;;;;;;;11.10;8.77;;;;;;;19.78;100.00;101247.25;5266255;28;20389;-73
2023/10/12 11:00:11;;;;;;;16.15;10.30;;;;;;;19.90;100.00;101256.44;5265083;28;20025;-73
2023/10/12 11:02:47;;;;;;;14.43;9.50;;;;;;;19.83;100.00;101258.97;5257482;28;20047;-73
2023/10/12 11:05:21;;;;;;;10.90;9.40;;;;;;;19.75;100.00;101261.72;5262473;28;20033;-73
2023/10/12 11:07:54;;;;;;;12.23;10.10;;;;;;;19.73;100.00;101255.75;5266334;28;20033;-73
2023/10/12 11:10:32;;;;;;;13.50;9.95;;;;;;;19.77;100.00;101248.22;5264000;28;20059;-74
2023/10/12 11:13:05;;;;;;;14.25;9.98;;;;;;;19.82;100.00;101243.22;5263200;28;20025;-74
2023/10/12 11:15:38;;;;;;;14.77;10.50;;;;;;;19.84;100.00;101244.66;5266790;28;20036;-74
2023/10/12 11:18:17;;;;;;;16.75;10.73;;;;;;;19.90;100.00;101240.47;5263475;28;20037;-74
2023/10/12 11:20:57;;;;;;;13.88;10.35;;;;;;;19.87;100.00;101236.34;5264908;28;20028;-73
2023/10/12 11:23:29;;;;;;;12.18;9.40;;;;;;;19.86;100.00;101245.31;5266852;28;20596;-74
2023/10/12 11:26:04;;;;;;;14.95;9.68;;;;;;;19.90;100.00;101245.78;5265639;28;20194;-73
2023/10/12 11:28:37;;;;;;;11.02;9.35;;;;;;;19.74;100.00;101254.75;5262590;28;20037;-73
2023/10/12 11:31:32;;;;;;;10.60;9.50;;;;;;;19.83;100.00;101251.00;5263444;28;20390;-74
2023/10/12 11:34:12;;;;;;;12.10;9.15;;;;;;;19.77;100.00;101240.25;5262083;28;20028;-74
2023/10/12 11:36:45;;;;;;;13.07;9.65;;;;;;;19.74;100.00;101240.63;5262533;28;20037;-73
2023/10/12 11:39:17;;;;;;;11.90;9.45;;;;;;;19.72;100.00;101232.00;5264502;28;20024;-73
2023/10/12 11:42:06;;;;;;;11.98;8.68;;;;;;;19.97;100.00;101238.75;5258517;28;20071;-74
2023/10/12 11:44:42;;;;;;;11.98;7.43;;;;;;;19.64;100.00;101244.34;5236565;28;20501;-73
2023/10/12 11:47:17;;;;;;;13.60;8.00;;;;;;;19.67;100.00;101235.22;5266667;28;20037;-74
2023/10/12 11:49:55;;;;;;;11.07;7.65;;;;;;;19.60;100.00;101240.38;5271547;28;20059;-73
2023/10/12 11:52:32;;;;;;;11.23;7.53;;;;;;;19.71;100.00;101227.69;5266862;28;20037;-73
2023/10/12 11:55:07;;;;;;;12.63;7.70;;;;;;;19.68;100.00;101229.69;5270538;28;20106;-73
2023/10/12 11:57:43;;;;;;;9.90;7.72;;;;;;;19.67;100.00;101222.75;5270656;28;20053;-74
2023/10/12 12:00:21;;;;;;;15.27;7.40;;;;;;;19.69;100.00;101223.38;5266813;28;20029;-73
2023/10/12 12:02:58;;;;;;;13.60;7.45;;;;;;;19.75;100.00;101226.34;5266627;28;20547;-73
2023/10/12 12:05:30;;;;;;;11.25;6.75;;;;;;;19.71;100.00;101225.88;5269977;28;20067;-74
2023/10/12 12:08:06;;;;;;;11.43;7.47;;;;;;;19.82;100.00;101224.59;5267295;28;20043;-73
2023/10/12 12:10:38;;;;;;;11.90;7.05;;;;;;;19.78;100.00;101218.81;5254398;28;20064;-73
2023/10/12 12:13:12;;;;;;;12.02;6.82;;;;;;;19.89;100.00;101226.34;5269119;28;20020;-73
2023/10/12 12:15:44;;;;;;;9.70;6.50;;;;;;;19.76;100.00;101218.16;5267355;28;20389;-74
2023/10/12 12:18:20;;;;;;;11.65;7.28;;;;;;;19.78;100.00;101216.16;5266886;28;20032;-74
2023/10/12 12:20:56;;;;;;;13.70;7.20;;;;;;;19.72;100.00;101213.41;5263755;28;20035;-74
2023/10/12 12:23:32;;;;;;;9.20;6.75;;;;;;;19.75;100.00;101205.06;5266554;28;20424;-74
2023/10/12 12:26:07;;;;;;;11.23;7.50;;;;;;;19.78;100.00;101196.72;5263530;28;20107;-74
2023/10/12 12:28:49;;;;;;;10.23;6.68;;;;;;;19.71;100.00;101193.16;5253762;28;20397;-74
2023/10/12 12:31:24;;;;;;;12.13;7.00;;;;;;;19.69;100.00;101193.31;5266913;28;20031;-74
2023/10/12 12:33:55;;;;;;;11.77;6.95;;;;;;;19.65;100.00;101192.84;5263820;28;20020;-74
2023/10/12 12:36:30;;;;;;;13.68;7.28;;;;;;;19.67;100.00;101182.88;5264395;28;20048;-74
2023/10/12 12:39:09;;;;;;;10.63;7.07;;;;;;;19.55;100.00;101173.66;5259087;28;20036;-74
2023/10/12 12:41:42;;;;;;;11.90;7.60;;;;;;;19.58;100.00;101157.31;5257376;28;20579;-74
2023/10/12 12:44:16;;;;;;;9.25;6.88;;;;;;;19.57;100.00;101166.31;5262419;28;20048;-73
2023/10/12 12:46:48;;;;;;;9.10;6.80;;;;;;;19.51;100.00;101174.19;5261466;28;20393;-73
2023/10/12 12:49:21;;;;;;;11.05;7.95;;;;;;;19.53;100.00;101166.88;5253461;28;20029;-74
2023/10/12 12:51:52;;;;;;;10.88;7.80;;;;;;;19.50;100.00;101175.19;5254728;28;20029;-74
2023/10/12 12:54:25;;;;;;;11.27;7.70;;;;;;;19.47;100.00;101175.53;5264508;28;20044;-74
2023/10/12 12:56:58;;;;;;;13.15;7.40;;;;;;;19.55;100.00;101176.31;5261925;28;20028;-74
2023/10/12 12:59:31;;;;;;;12.98;7.82;;;;;;;19.49;100.00;101182.34;5263655;28;20081;-74
2023/10/12 13:02:03;;;;;;;;;;;;;;;20.34;100.00;101183.75;5264233;28;20017;-74
2023/10/12 13:04:35;;;;;;;10.13;7.82;;;;;;;19.53;100.00;101183.63;5267850;28;20262;-74
2023/10/12 13:07:12;;;;;;;10.02;7.47;;;;;;;19.50;100.00;101185.81;5272141;28;20028;-73
2023/10/12 13:09:47;;;;;;;11.18;8.43;;;;;;;19.45;100.00;101186.38;5267476;28;20024;-74
2023/10/12 13:12:19;;;;;;;11.57;8.30;;;;;;;19.38;100.00;101182.78;5264485;28;20033;-73
2023/10/12 13:14:51;;;;;;;11.05;8.15;;;;;;;19.42;100.00;101178.75;5267173;28;20481;-73
2023/10/12 13:17:23;;;;;;;11.65;8.05;;;;;;;19.38;100.00;101175.63;5264502;28;20047;-73
2023/10/12 13:19:58;;;;;;;10.25;7.65;;;;;;;19.41;100.00;101182.41;5265816;28;20033;-73
2023/10/12 13:22:30;;;;;;;13.00;8.60;;;;;;;19.37;100.00;101175.81;5269512;28;20029;-74
2023/10/12 13:25:03;;;;;;;10.60;7.95;;;;;;;19.48;100.00;101175.38;5263545;28;20499;-73
2023/10/12 13:27:35;;;;;;;10.30;7.63;;;;;;;19.51;100.00;101177.69;5262025;28;20032;-73
2023/10/12 13:30:11;;;;;;;12.40;8.98;;;;;;;19.53;100.00;101175.66;5259195;28;20478;-73
2023/10/12 13:32:44;;;;;;;12.00;8.43;;;;;;;19.57;100.00;101176.94;5258861;28;20049;-73
2023/10/12 13:35:31;;;;;;;12.90;8.52;;;;;;;19.49;100.00;101169.06;5257903;28;20056;-73
2023/10/12 13:38:03;;;;;;;13.02;9.13;;;;;;;19.56;100.00;101174.47;5255961;28;20021;-73
2023/10/12 13:40:39;;;;;;;14.23;9.52;;;;;;;19.68;100.00;101165.09;5260349;28;20032;-74
2023/10/12 13:43:26;;;;;;;11.95;8.80;;;;;;;19.57;100.00;101154.88;5260038;28;20040;-74
2023/10/12 13:46:00;;;;;;;11.90;8.60;;;;;;;19.64;100.00;101161.97;5268182;28;20474;-73
2023/10/12 13:48:37;;;;;;;13.18;8.45;;;;;;;19.67;100.00;101166.91;5265096;28;20024;-74
2023/10/12 13:51:12;;;;;;;9.32;7.43;;;;;;;19.66;100.00;101169.75;5262888;28;20037;-74
2023/10/12 13:53:46;;;;;;;12.18;7.50;;;;;;;19.70;100.00;101165.75;5263987;28;20043;-73